createdAt,value
2022-09-07T00:00:50.661Z,16.4
2022-09-07T00:02:51.074Z,16.4
2022-09-07T00:04:50.539Z,16.4
2022-09-07T00:06:50.080Z,16.4
2022-09-07T00:08:50.269Z,16.3
2022-09-07T00:10:50.054Z,16.3
2022-09-07T00:12:50.050Z,16.3
2022-09-07T00:14:50.898Z,16.3
2022-09-07T00:16:50.186Z,16.3
2022-09-07T00:18:50.014Z,16.3
2022-09-07T00:20:50.812Z,16.3
2022-09-07T00:22:50.910Z,16.3
2022-09-07T00:24:50.138Z,16.3
2022-09-07T00:26:50.583Z,16.2
2022-09-07T00:28:50.512Z,16.2
2022-09-07T00:30:50.719Z,16.2
2022-09-07T00:32:50.745Z,16.2
2022-09-07T00:34:50.184Z,16.2
2022-09-07T00:36:50.423Z,16.2
2022-09-07T00:38:50.355Z,16.2
2022-09-07T00:40:50.272Z,16.2
2022-09-07T00:42:50.219Z,16.2
2022-09-07T00:44:50.133Z,16.2
2022-09-07T00:46:50.337Z,16.2
2022-09-07T00:48:50.367Z,16.2
2022-09-07T00:50:50.308Z,16.1
2022-09-07T00:52:50.442Z,16.1
2022-09-07T00:54:50.271Z,16.1
2022-09-07T00:56:50.414Z,16.1
2022-09-07T00:58:50.287Z,16.1
2022-09-07T01:00:50.190Z,16.1
2022-09-07T01:02:50.692Z,16.1
2022-09-07T01:04:50.402Z,16.0
2022-09-07T01:06:50.725Z,16.0
2022-09-07T01:08:50.723Z,16.0
2022-09-07T01:10:50.684Z,16.0
2022-09-07T01:12:50.700Z,16.0
2022-09-07T01:14:50.780Z,16.0
2022-09-07T01:16:50.771Z,15.9
2022-09-07T01:18:50.586Z,15.9
2022-09-07T01:20:50.615Z,15.8
2022-09-07T01:22:50.628Z,15.8
2022-09-07T01:24:50.382Z,15.8
2022-09-07T01:26:50.727Z,15.8
2022-09-07T01:28:50.512Z,15.8
2022-09-07T01:30:50.801Z,15.8
2022-09-07T01:32:50.830Z,15.8
2022-09-07T01:34:50.371Z,15.8
2022-09-07T01:36:50.573Z,15.8
2022-09-07T01:38:50.620Z,15.8
2022-09-07T01:40:50.837Z,15.8
2022-09-07T01:42:50.802Z,15.7
2022-09-07T01:44:50.067Z,15.7
2022-09-07T01:46:50.579Z,15.6
2022-09-07T01:48:50.735Z,15.6
2022-09-07T01:50:50.572Z,15.6
2022-09-07T01:52:50.668Z,15.5
2022-09-07T01:54:50.604Z,15.5
2022-09-07T01:56:50.860Z,15.5
2022-09-07T01:58:50.752Z,15.5
2022-09-07T02:00:50.741Z,15.5
2022-09-07T02:02:51.014Z,15.5
2022-09-07T02:04:50.721Z,15.5
2022-09-07T02:06:50.009Z,15.4
2022-09-07T02:08:50.468Z,15.4
2022-09-07T02:10:50.600Z,15.4
2022-09-07T02:12:50.774Z,15.4
2022-09-07T02:14:53.241Z,15.4
2022-09-07T02:16:50.447Z,15.4
2022-09-07T02:18:50.459Z,15.3
2022-09-07T02:20:50.505Z,15.3
2022-09-07T02:22:50.498Z,15.3
2022-09-07T02:24:50.587Z,15.3
2022-09-07T02:26:50.068Z,15.3
2022-09-07T02:28:49.935Z,15.3
2022-09-07T02:30:50.208Z,15.3
2022-09-07T02:32:50.067Z,15.3
2022-09-07T02:34:50.468Z,15.3
2022-09-07T02:36:50.836Z,15.3
2022-09-07T02:38:50.940Z,15.2
2022-09-07T02:40:49.957Z,15.2
2022-09-07T02:42:50.028Z,15.2
2022-09-07T02:44:50.403Z,15.2
2022-09-07T02:46:50.580Z,15.2
2022-09-07T02:48:50.593Z,15.2
2022-09-07T02:50:50.638Z,15.2
2022-09-07T02:52:49.937Z,15.2
2022-09-07T02:54:49.946Z,15.2
2022-09-07T02:56:50.213Z,15.2
2022-09-07T02:58:50.258Z,15.2
2022-09-07T03:00:50.210Z,15.3
2022-09-07T03:02:50.720Z,15.3
2022-09-07T03:04:50.459Z,15.3
2022-09-07T03:06:50.674Z,15.2
2022-09-07T03:08:50.798Z,15.3
2022-09-07T03:10:50.885Z,15.2
2022-09-07T03:12:49.950Z,15.2
2022-09-07T03:14:50.792Z,15.2
2022-09-07T03:16:49.979Z,15.2
2022-09-07T03:18:49.931Z,15.2
2022-09-07T03:20:49.972Z,15.2
2022-09-07T03:22:50.068Z,15.2
2022-09-07T03:24:50.914Z,15.1
2022-09-07T03:26:50.455Z,15.1
2022-09-07T03:28:50.649Z,15.1
2022-09-07T03:30:51.132Z,15.2
2022-09-07T03:32:50.208Z,15.2
2022-09-07T03:34:50.656Z,15.2
2022-09-07T03:36:50.397Z,15.1
2022-09-07T03:38:50.535Z,15.1
2022-09-07T03:40:50.576Z,15.1
2022-09-07T03:42:50.708Z,15.1
2022-09-07T03:44:50.718Z,15.1
2022-09-07T03:46:50.056Z,15.1
2022-09-07T03:48:50.715Z,15.1
2022-09-07T03:50:50.708Z,15.1
2022-09-07T03:52:50.524Z,15.1
2022-09-07T03:54:50.735Z,15.0
2022-09-07T03:56:50.885Z,15.0
2022-09-07T03:58:50.089Z,15.0
2022-09-07T04:00:50.837Z,15.0
2022-09-07T04:02:50.285Z,15.0
2022-09-07T04:04:50.199Z,15.0
2022-09-07T04:06:50.400Z,15.0
2022-09-07T04:08:50.381Z,15.0
2022-09-07T04:10:50.620Z,15.0
2022-09-07T04:12:50.915Z,15.0
2022-09-07T04:14:50.879Z,15.0
2022-09-07T04:16:50.324Z,15.0
2022-09-07T04:18:50.485Z,15.0
2022-09-07T04:20:50.483Z,15.0
2022-09-07T04:22:54.789Z,15.0
2022-09-07T04:24:50.745Z,15.0
2022-09-07T04:26:50.863Z,15.0
2022-09-07T04:28:50.787Z,15.0
2022-09-07T04:30:51.161Z,15.0
2022-09-07T04:32:50.676Z,15.0
2022-09-07T04:34:50.084Z,15.0
2022-09-07T04:36:50.413Z,15.0
2022-09-07T04:38:50.170Z,15.0
2022-09-07T04:40:50.159Z,15.1
2022-09-07T04:42:50.106Z,15.2
2022-09-07T04:44:50.212Z,15.2
2022-09-07T04:46:50.428Z,15.2
2022-09-07T04:48:50.352Z,15.2
2022-09-07T04:50:50.089Z,15.2
2022-09-07T04:52:49.994Z,15.2
2022-09-07T04:54:50.447Z,15.2
2022-09-07T04:56:50.775Z,15.2
2022-09-07T04:58:50.792Z,15.2
2022-09-07T05:00:50.875Z,15.2
2022-09-07T05:02:50.270Z,15.3
2022-09-07T05:04:50.009Z,15.3
2022-09-07T05:06:50.144Z,15.3
2022-09-07T05:08:50.205Z,15.4
2022-09-07T05:10:50.233Z,15.4
2022-09-07T05:12:50.118Z,15.4
2022-09-07T05:14:49.923Z,15.4
2022-09-07T05:16:50.772Z,15.4
2022-09-07T05:18:50.834Z,15.5
2022-09-07T05:20:50.856Z,15.6
2022-09-07T05:22:50.881Z,15.6
2022-09-07T05:24:49.997Z,15.6
2022-09-07T05:26:50.181Z,15.7
2022-09-07T05:28:51.301Z,15.7
2022-09-07T05:31:19.291Z,15.7
2022-09-07T05:32:50.666Z,15.7
2022-09-07T05:34:53.431Z,15.8
2022-09-07T05:36:50.515Z,15.8
2022-09-07T05:38:50.615Z,15.8
2022-09-07T05:40:50.643Z,15.8
2022-09-07T05:42:50.725Z,15.8
2022-09-07T05:44:50.784Z,15.9
2022-09-07T05:46:50.857Z,15.9
2022-09-07T05:48:49.919Z,16.0
2022-09-07T05:50:50.856Z,16.0
2022-09-07T05:52:50.801Z,16.0
2022-09-07T05:54:50.846Z,16.1
2022-09-07T05:56:50.618Z,16.2
2022-09-07T05:58:50.665Z,16.2
2022-09-07T06:00:50.879Z,16.2
2022-09-07T06:02:51.403Z,16.2
2022-09-07T06:04:50.243Z,16.3
2022-09-07T06:07:22.310Z,16.4
2022-09-07T06:08:50.447Z,16.5
2022-09-07T06:10:50.561Z,16.6
2022-09-07T06:12:50.675Z,16.6
2022-09-07T06:14:50.690Z,16.6
2022-09-07T06:16:50.701Z,16.7
2022-09-07T06:18:50.761Z,16.8
2022-09-07T06:20:49.981Z,16.8
2022-09-07T06:22:50.067Z,16.9
2022-09-07T06:24:50.138Z,17.0
2022-09-07T06:26:50.747Z,17.0
2022-09-07T06:28:58.278Z,17.1
2022-09-07T06:30:50.246Z,17.2
2022-09-07T06:32:50.114Z,17.2
2022-09-07T06:34:50.783Z,17.3
2022-09-07T06:36:50.132Z,17.4
2022-09-07T06:38:50.264Z,17.5
2022-09-07T06:40:51.018Z,17.5
2022-09-07T06:42:49.986Z,17.6
2022-09-07T06:44:50.140Z,17.8
2022-09-07T06:48:50.716Z,17.9
2022-09-07T06:50:50.811Z,18.0
2022-09-07T06:53:35.389Z,18.1
2022-09-07T06:56:50.057Z,18.2
2022-09-07T06:58:50.127Z,18.2
2022-09-07T07:00:50.517Z,18.3
2022-09-07T07:02:50.873Z,18.4
2022-09-07T07:04:50.557Z,18.5
2022-09-07T07:06:50.836Z,18.6
2022-09-07T07:08:50.804Z,18.6
2022-09-07T07:10:50.806Z,18.7
2022-09-07T07:12:49.940Z,18.7
2022-09-07T07:14:50.806Z,18.8
2022-09-07T07:16:50.504Z,18.8
2022-09-07T07:18:50.419Z,18.8
2022-09-07T07:20:50.512Z,18.9
2022-09-07T07:22:50.782Z,18.9
2022-09-07T07:24:50.706Z,18.9
2022-09-07T07:26:50.159Z,19.0
2022-09-07T07:29:01.357Z,19.0
2022-09-07T07:30:50.335Z,19.0
2022-09-07T07:32:50.299Z,19.0
2022-09-07T07:34:50.827Z,19.0
2022-09-07T07:36:50.260Z,19.0
2022-09-07T07:39:02.879Z,19.0
2022-09-07T07:42:50.088Z,19.2
2022-09-07T07:46:51.014Z,19.3
2022-09-07T07:48:50.311Z,19.4
2022-09-07T07:50:50.433Z,19.5
2022-09-07T07:53:41.512Z,19.6
2022-09-07T07:54:49.942Z,19.6
2022-09-07T07:56:50.079Z,19.8
2022-09-07T07:58:50.127Z,19.8
2022-09-07T08:00:57.741Z,20.0
2022-09-07T08:02:50.633Z,20.1
2022-09-07T08:04:50.111Z,20.1
2022-09-07T08:06:50.335Z,20.2
2022-09-07T08:08:50.256Z,20.3
2022-09-07T08:10:50.277Z,20.4
2022-09-07T08:12:50.078Z,20.5
2022-09-07T08:14:50.084Z,20.5
2022-09-07T08:16:50.277Z,20.6
2022-09-07T08:18:50.384Z,20.6
2022-09-07T08:20:50.253Z,20.8
2022-09-07T08:22:50.377Z,20.8
2022-09-07T08:24:50.201Z,20.8
2022-09-07T08:26:50.483Z,21.0
2022-09-07T08:28:50.356Z,21.1
2022-09-07T08:30:50.312Z,21.1
2022-09-07T08:32:50.289Z,21.1
2022-09-07T08:34:49.938Z,21.3
2022-09-07T08:36:50.005Z,21.4
2022-09-07T08:38:49.993Z,21.5
2022-09-07T08:40:50.822Z,21.5
2022-09-07T08:42:49.889Z,21.5
2022-09-07T08:44:50.794Z,21.7
2022-09-07T08:46:50.830Z,21.8
2022-09-07T08:48:50.835Z,21.9
2022-09-07T08:50:49.966Z,21.9
2022-09-07T08:52:50.824Z,22.0
2022-09-07T08:54:50.909Z,22.1
2022-09-07T08:57:21.357Z,22.2
2022-09-07T08:58:51.232Z,22.2
2022-09-07T09:01:30.235Z,22.4
2022-09-07T09:03:32.087Z,22.4
2022-09-07T09:05:19.180Z,22.5
2022-09-07T09:06:51.375Z,22.6
2022-09-07T09:08:50.232Z,22.6
2022-09-07T09:10:50.314Z,22.8
2022-09-07T09:12:50.280Z,22.8
2022-09-07T09:14:50.544Z,22.9
2022-09-07T09:16:50.700Z,23.0
2022-09-07T09:18:50.008Z,23.0
2022-09-07T09:20:49.981Z,23.0
2022-09-07T09:22:50.879Z,23.2
2022-09-07T09:24:50.919Z,23.2
2022-09-07T09:28:50.131Z,23.4
2022-09-07T09:30:51.226Z,23.4
2022-09-07T09:32:50.445Z,23.4
2022-09-07T09:34:50.903Z,23.4
2022-09-07T09:36:50.423Z,23.6
2022-09-07T09:38:50.430Z,23.6
2022-09-07T09:40:50.652Z,23.6
2022-09-07T09:42:50.439Z,23.7
2022-09-07T09:44:50.265Z,23.8
2022-09-07T09:47:32.249Z,23.9
2022-09-07T09:48:50.345Z,23.9
2022-09-07T09:52:52.647Z,24.0
2022-09-07T09:54:50.485Z,24.2
2022-09-07T09:56:50.700Z,24.3
2022-09-07T10:01:21.520Z,24.4
2022-09-07T10:04:49.962Z,24.8
2022-09-07T10:06:50.295Z,24.8
2022-09-07T10:08:50.171Z,25.0
2022-09-07T10:10:50.184Z,25.0
2022-09-07T10:12:50.165Z,25.1
2022-09-07T10:14:50.296Z,25.3
2022-09-07T10:16:50.674Z,25.3
2022-09-07T10:18:50.762Z,25.4
2022-09-07T10:20:50.586Z,25.5
2022-09-07T10:22:52.095Z,25.6
2022-09-07T10:24:50.223Z,25.6
2022-09-07T10:26:50.339Z,25.6
2022-09-07T10:29:08.659Z,25.7
2022-09-07T10:30:50.993Z,25.7
2022-09-07T10:32:50.088Z,25.7
2022-09-07T10:34:50.654Z,25.8
2022-09-07T10:36:50.822Z,25.8
2022-09-07T10:38:50.682Z,25.8
2022-09-07T10:40:50.649Z,25.8
2022-09-07T10:43:21.362Z,25.8
2022-09-07T10:44:50.372Z,25.8
2022-09-07T10:46:59.080Z,25.9
2022-09-07T10:48:50.266Z,25.9
2022-09-07T10:50:50.045Z,26.0
2022-09-07T10:52:50.006Z,26.0
2022-09-07T10:54:50.660Z,26.0
2022-09-07T10:56:49.995Z,26.1
2022-09-07T10:59:04.979Z,26.1
2022-09-07T11:00:50.657Z,26.2
2022-09-07T11:03:27.797Z,26.3
2022-09-07T11:04:50.362Z,26.3
2022-09-07T11:06:50.589Z,26.4
2022-09-07T11:09:19.818Z,26.4
2022-09-07T11:10:50.329Z,26.5
2022-09-07T11:12:50.310Z,26.5
2022-09-07T11:14:50.232Z,26.6
2022-09-07T11:16:52.526Z,26.5
2022-09-07T11:18:51.533Z,26.6
2022-09-07T11:20:50.068Z,26.7
2022-09-07T11:22:50.066Z,26.7
2022-09-07T11:25:31.659Z,26.8
2022-09-07T11:26:50.278Z,26.9
2022-09-07T11:29:30.796Z,26.9
2022-09-07T11:30:50.754Z,27.0
2022-09-07T11:32:50.863Z,27.0
2022-09-07T11:34:54.452Z,27.1
2022-09-07T11:36:50.786Z,27.1
2022-09-07T11:38:50.666Z,27.1
2022-09-07T11:40:50.530Z,27.1
2022-09-07T11:42:50.733Z,27.1
2022-09-07T11:44:50.895Z,27.2
2022-09-07T11:46:49.976Z,27.1
2022-09-07T11:48:50.913Z,27.2
2022-09-07T11:50:50.898Z,27.1
2022-09-07T11:52:54.270Z,27.1
2022-09-07T11:54:50.296Z,27.0
2022-09-07T11:56:50.424Z,26.9
2022-09-07T11:58:50.825Z,26.9
2022-09-07T12:00:50.692Z,26.9
2022-09-07T12:03:01.472Z,27.0
2022-09-07T12:04:57.186Z,27.0
2022-09-07T12:06:50.809Z,27.1
2022-09-07T12:08:50.670Z,27.2
2022-09-07T12:10:50.744Z,27.2
2022-09-07T12:12:50.648Z,27.3
2022-09-07T12:14:50.616Z,27.4
2022-09-07T12:16:49.964Z,27.4
2022-09-07T12:18:50.827Z,27.5
2022-09-07T12:20:50.829Z,27.5
2022-09-07T12:22:50.714Z,27.5
2022-09-07T12:24:50.774Z,27.6
2022-09-07T12:26:50.120Z,27.6
2022-09-07T12:28:50.349Z,27.6
2022-09-07T12:30:50.541Z,27.7
2022-09-07T12:32:59.019Z,27.8
2022-09-07T12:34:50.382Z,27.8
2022-09-07T12:36:50.418Z,27.8
2022-09-07T12:38:50.299Z,27.8
2022-09-07T12:40:50.450Z,27.8
2022-09-07T12:42:50.474Z,27.8
2022-09-07T12:44:50.574Z,27.8
2022-09-07T12:46:50.837Z,27.9
2022-09-07T12:48:49.913Z,27.9
2022-09-07T12:50:51.476Z,27.9
2022-09-07T12:52:50.497Z,27.8
2022-09-07T12:55:27.734Z,27.8
2022-09-07T12:57:31.338Z,27.8
2022-09-07T12:58:50.466Z,27.7
2022-09-07T13:00:50.383Z,27.7
2022-09-07T13:02:50.380Z,27.6
2022-09-07T13:04:52.547Z,27.6
2022-09-07T13:07:03.996Z,27.6
2022-09-07T13:08:50.414Z,27.7
2022-09-07T13:10:50.354Z,27.7
2022-09-07T13:12:57.936Z,27.8
2022-09-07T13:14:51.730Z,27.8
2022-09-07T13:17:17.618Z,27.8
2022-09-07T13:18:49.935Z,27.8
2022-09-07T13:20:50.066Z,27.9
2022-09-07T13:22:49.989Z,28.0
2022-09-07T13:24:51.567Z,28.0
2022-09-07T13:26:51.771Z,28.0
2022-09-07T13:28:50.711Z,28.2
2022-09-07T13:30:51.167Z,28.3
2022-09-07T13:33:09.251Z,28.4
2022-09-07T13:34:50.394Z,28.5
2022-09-07T13:36:50.554Z,28.5
2022-09-07T13:38:50.860Z,28.6
2022-09-07T13:40:50.726Z,28.6
2022-09-07T13:42:50.605Z,28.6
2022-09-07T13:44:50.347Z,28.6
2022-09-07T13:46:50.504Z,28.6
2022-09-07T13:48:50.431Z,28.6
2022-09-07T13:50:50.559Z,28.7
2022-09-07T13:52:50.452Z,28.8
2022-09-07T13:54:50.336Z,28.8
2022-09-07T13:56:49.949Z,28.8
2022-09-07T13:58:50.948Z,28.8
2022-09-07T14:00:50.075Z,28.9
2022-09-07T14:02:57.453Z,28.9
2022-09-07T14:04:49.948Z,28.9
2022-09-07T14:06:50.189Z,28.8
2022-09-07T14:08:50.110Z,28.8
2022-09-07T14:10:50.187Z,28.6
2022-09-07T14:12:50.326Z,28.6
2022-09-07T14:14:50.188Z,28.6
2022-09-07T14:16:50.668Z,28.6
2022-09-07T14:18:50.532Z,28.6
2022-09-07T14:20:50.232Z,28.5
2022-09-07T14:22:53.926Z,28.5
2022-09-07T14:24:50.774Z,28.6
2022-09-07T14:26:50.896Z,28.5
2022-09-07T14:28:50.811Z,28.5
2022-09-07T14:30:50.984Z,28.5
2022-09-07T14:32:50.917Z,28.5
2022-09-07T14:34:50.181Z,28.4
2022-09-07T14:36:50.229Z,28.4
2022-09-07T14:39:06.438Z,28.4
2022-09-07T14:40:52.097Z,28.4
2022-09-07T14:42:50.331Z,28.5
2022-09-07T14:44:50.267Z,28.4
2022-09-07T14:46:57.674Z,28.4
2022-09-07T14:48:50.907Z,28.5
2022-09-07T14:51:32.609Z,28.5
2022-09-07T14:53:35.527Z,28.6
2022-09-07T14:54:50.769Z,28.6
2022-09-07T14:56:50.851Z,28.8
2022-09-07T14:58:50.849Z,28.9
2022-09-07T15:01:39.154Z,28.9
2022-09-07T15:02:50.611Z,29.0
2022-09-07T15:04:50.099Z,29.1
2022-09-07T15:07:02.863Z,29.1
2022-09-07T15:08:50.006Z,29.2
2022-09-07T15:11:34.427Z,29.2
2022-09-07T15:12:50.201Z,29.2
2022-09-07T15:14:49.960Z,29.2
2022-09-07T15:17:43.760Z,29.2
2022-09-07T15:18:50.084Z,29.2
2022-09-07T15:20:50.155Z,29.2
2022-09-07T15:22:50.317Z,29.2
2022-09-07T15:24:50.491Z,29.2
2022-09-07T15:27:04.554Z,29.1
2022-09-07T15:29:18.918Z,29.1
2022-09-07T15:31:45.941Z,29.1
2022-09-07T15:32:50.484Z,29.1
2022-09-07T15:34:50.801Z,29.1
2022-09-07T15:36:50.223Z,29.2
2022-09-07T15:39:03.088Z,29.2
2022-09-07T15:41:23.923Z,29.1
2022-09-07T15:43:16.731Z,29.2
2022-09-07T15:44:50.901Z,29.1
2022-09-07T15:47:50.534Z,29.1
2022-09-07T15:48:50.190Z,29.0
2022-09-07T15:50:50.519Z,29.0
2022-09-07T15:52:50.559Z,29.0
2022-09-07T15:54:50.463Z,29.0
2022-09-07T15:57:49.486Z,29.0
2022-09-07T15:58:50.549Z,29.0
2022-09-07T16:03:09.587Z,28.8
2022-09-07T16:04:51.241Z,28.8
2022-09-07T16:06:50.648Z,28.8
2022-09-07T16:08:52.041Z,28.8
2022-09-07T16:11:06.419Z,28.7
2022-09-07T16:13:11.458Z,28.6
2022-09-07T16:14:57.077Z,28.6
2022-09-07T16:17:34.604Z,28.6
2022-09-07T16:18:50.656Z,28.5
2022-09-07T16:20:53.587Z,28.4
2022-09-07T16:23:15.480Z,28.4
2022-09-07T16:24:49.955Z,28.3
2022-09-07T16:26:50.173Z,28.3
2022-09-07T16:28:50.226Z,28.2
2022-09-07T16:30:49.938Z,28.1
2022-09-07T16:32:51.156Z,28.0
2022-09-07T16:34:50.629Z,27.9
2022-09-07T16:36:50.677Z,27.9
2022-09-07T16:38:50.673Z,27.8
2022-09-07T16:40:50.647Z,27.7
2022-09-07T16:42:50.705Z,27.7
2022-09-07T16:44:51.993Z,27.6
2022-09-07T16:46:51.228Z,27.6
2022-09-07T16:48:50.405Z,27.5
2022-09-07T16:50:50.340Z,27.4
2022-09-07T16:52:50.196Z,27.4
2022-09-07T16:54:51.647Z,27.4
2022-09-07T16:56:49.898Z,27.4
2022-09-07T16:58:52.052Z,27.3
2022-09-07T17:00:50.683Z,27.2
2022-09-07T17:02:50.790Z,27.1
2022-09-07T17:04:50.411Z,27.1
2022-09-07T17:06:50.655Z,27.1
2022-09-07T17:08:50.547Z,27.0
2022-09-07T17:10:50.441Z,26.9
2022-09-07T17:12:50.382Z,26.9
2022-09-07T17:14:50.254Z,26.8
2022-09-07T17:16:50.635Z,26.7
2022-09-07T17:19:33.015Z,26.7
2022-09-07T17:20:49.968Z,26.6
2022-09-07T17:22:50.072Z,26.6
2022-09-07T17:24:50.887Z,26.5
2022-09-07T17:26:50.137Z,26.4
2022-09-07T17:28:50.257Z,26.3
2022-09-07T17:30:50.110Z,26.2
2022-09-07T17:32:50.245Z,26.2
2022-09-07T17:34:52.025Z,26.1
2022-09-07T17:36:51.526Z,26.0
2022-09-07T17:39:16.654Z,26.0
2022-09-07T17:40:50.067Z,26.0
2022-09-07T17:43:45.193Z,25.8
2022-09-07T17:44:53.388Z,25.8
2022-09-07T17:46:50.511Z,25.7
2022-09-07T17:48:50.605Z,25.6
2022-09-07T17:50:50.497Z,25.6
2022-09-07T17:52:53.560Z,25.4
2022-09-07T17:54:50.431Z,25.4
2022-09-07T17:56:50.562Z,25.3
2022-09-07T17:58:51.473Z,25.3
2022-09-07T18:00:51.978Z,25.2
2022-09-07T18:02:50.885Z,25.0
2022-09-07T18:04:50.514Z,24.9
2022-09-07T18:06:50.932Z,24.8
2022-09-07T18:08:50.855Z,24.7
2022-09-07T18:11:46.999Z,24.7
2022-09-07T18:12:50.633Z,24.6
2022-09-07T18:14:50.613Z,24.5
2022-09-07T18:16:51.339Z,24.5
2022-09-07T18:18:50.443Z,24.4
2022-09-07T18:20:50.371Z,24.4
2022-09-07T18:22:50.236Z,24.2
2022-09-07T18:24:50.134Z,24.2
2022-09-07T18:26:52.908Z,24.1
2022-09-07T18:29:28.545Z,24.1
2022-09-07T18:30:50.737Z,24.0
2022-09-07T18:32:50.789Z,23.9
2022-09-07T18:34:51.456Z,23.8
2022-09-07T18:36:50.938Z,23.8
2022-09-07T18:38:50.834Z,23.8
2022-09-07T18:40:51.647Z,23.7
2022-09-07T18:42:52.956Z,23.6
2022-09-07T18:45:27.734Z,23.5
2022-09-07T18:46:50.365Z,23.5
2022-09-07T18:48:50.360Z,23.4
2022-09-07T18:50:50.885Z,23.3
2022-09-07T18:53:01.588Z,23.2
2022-09-07T18:54:50.998Z,23.2
2022-09-07T18:56:50.297Z,23.1
2022-09-07T18:58:50.195Z,23.0
2022-09-07T19:00:50.691Z,23.0
2022-09-07T19:02:50.781Z,22.9
2022-09-07T19:05:50.159Z,22.8
2022-09-07T19:06:50.544Z,22.8
2022-09-07T19:08:50.430Z,22.6
2022-09-07T19:10:50.345Z,22.6
2022-09-07T19:12:50.211Z,22.6
2022-09-07T19:14:50.376Z,22.6
2022-09-07T19:16:50.568Z,22.4
2022-09-07T19:18:50.482Z,22.3
2022-09-07T19:20:50.439Z,22.2
2022-09-07T19:22:50.243Z,22.2
2022-09-07T19:24:50.069Z,22.1
2022-09-07T19:26:50.343Z,22.1
2022-09-07T19:28:50.015Z,22.0
2022-09-07T19:30:49.923Z,22.0
2022-09-07T19:32:50.921Z,21.9
2022-09-07T19:34:50.406Z,21.8
2022-09-07T19:36:50.602Z,21.8
2022-09-07T19:38:50.489Z,21.7
2022-09-07T19:40:50.542Z,21.6
2022-09-07T19:42:50.472Z,21.6
2022-09-07T19:44:50.394Z,21.5
2022-09-07T19:46:50.990Z,21.4
2022-09-07T19:48:50.030Z,21.4
2022-09-07T19:50:49.952Z,21.3
2022-09-07T19:52:50.889Z,21.2
2022-09-07T19:54:50.856Z,21.2
2022-09-07T19:56:50.188Z,21.1
2022-09-07T19:58:50.073Z,21.1
2022-09-07T20:00:50.297Z,21.0
2022-09-07T20:02:50.461Z,20.9
2022-09-07T20:04:50.807Z,20.9
2022-09-07T20:06:50.761Z,20.9
2022-09-07T20:08:50.702Z,20.8
2022-09-07T20:10:50.622Z,20.7
2022-09-07T20:12:50.722Z,20.7
2022-09-07T20:14:50.695Z,20.6
2022-09-07T20:16:50.809Z,20.6
2022-09-07T20:18:50.776Z,20.5
2022-09-07T20:20:49.935Z,20.4
2022-09-07T20:22:50.803Z,20.4
2022-09-07T20:24:50.856Z,20.4
2022-09-07T20:26:50.332Z,20.3
2022-09-07T20:29:28.449Z,20.3
2022-09-07T20:30:50.330Z,20.3
2022-09-07T20:32:50.307Z,20.3
2022-09-07T20:34:50.743Z,20.2
2022-09-07T20:36:50.817Z,20.2
2022-09-07T20:38:50.694Z,20.2
2022-09-07T20:40:50.799Z,20.2
2022-09-07T20:42:50.745Z,20.1
2022-09-07T20:44:50.798Z,20.1
2022-09-07T20:46:50.397Z,20.1
2022-09-07T20:48:50.521Z,20.0
2022-09-07T20:50:50.492Z,20.0
2022-09-07T20:52:50.405Z,20.0
2022-09-07T20:54:50.331Z,20.0
2022-09-07T20:56:50.606Z,20.0
2022-09-07T20:58:50.324Z,20.0
2022-09-07T21:00:50.638Z,20.0
2022-09-07T21:02:50.690Z,20.0
2022-09-07T21:04:50.268Z,20.0
2022-09-07T21:06:50.605Z,20.0
2022-09-07T21:08:50.448Z,20.0
2022-09-07T21:10:50.423Z,20.0
2022-09-07T21:12:50.149Z,20.0
2022-09-07T21:14:50.082Z,20.0
2022-09-07T21:16:50.496Z,20.0
2022-09-07T21:18:50.503Z,20.0
2022-09-07T21:21:20.812Z,20.0
2022-09-07T21:22:50.014Z,20.0
2022-09-07T21:24:50.859Z,20.0
2022-09-07T21:26:50.081Z,20.0
2022-09-07T21:28:50.124Z,20.0
2022-09-07T21:30:49.980Z,20.0
2022-09-07T21:32:50.017Z,19.9
2022-09-07T21:34:50.201Z,19.9
2022-09-07T21:36:50.444Z,19.9
2022-09-07T21:38:50.388Z,19.9
2022-09-07T21:40:50.402Z,19.8
2022-09-07T21:42:50.142Z,19.8
2022-09-07T21:44:50.138Z,19.8
2022-09-07T21:46:50.668Z,19.8
2022-09-07T21:48:50.919Z,19.8
2022-09-07T21:50:50.896Z,19.7
2022-09-07T21:52:49.934Z,19.7
2022-09-07T21:54:50.911Z,19.7
2022-09-07T21:56:50.150Z,19.6
2022-09-07T21:58:50.085Z,19.6
2022-09-07T22:00:50.375Z,19.6
2022-09-07T22:02:50.542Z,19.6
2022-09-07T22:04:50.064Z,19.6
2022-09-07T22:06:50.320Z,19.6
2022-09-07T22:08:50.146Z,19.6
2022-09-07T22:10:50.201Z,19.5
2022-09-07T22:12:50.087Z,19.5
2022-09-07T22:14:50.102Z,19.5
2022-09-07T22:16:50.263Z,19.5
2022-09-07T22:18:50.393Z,19.5
2022-09-07T22:20:50.227Z,19.5
2022-09-07T22:22:50.314Z,19.4
2022-09-07T22:24:50.115Z,19.4
2022-09-07T22:26:50.309Z,19.5
2022-09-07T22:28:50.303Z,19.4
2022-09-07T22:30:50.137Z,19.4
2022-09-07T22:32:50.478Z,19.4
2022-09-07T22:34:50.426Z,19.4
2022-09-07T22:36:50.648Z,19.4
2022-09-07T22:38:50.737Z,19.4
2022-09-07T22:40:50.665Z,19.4
2022-09-07T22:42:50.439Z,19.4
2022-09-07T22:44:50.339Z,19.4
2022-09-07T22:46:50.889Z,19.4
2022-09-07T22:48:50.892Z,19.4
2022-09-07T22:50:50.831Z,19.4
2022-09-07T22:52:50.669Z,19.4
2022-09-07T22:54:50.570Z,19.4
2022-09-07T22:56:50.021Z,19.4
2022-09-07T22:58:49.978Z,19.4
2022-09-07T23:00:50.759Z,19.3
2022-09-07T23:02:50.659Z,19.3
2022-09-07T23:04:51.137Z,19.3
2022-09-07T23:06:50.578Z,19.3
2022-09-07T23:08:50.330Z,19.3
2022-09-07T23:10:50.406Z,19.3
2022-09-07T23:12:50.352Z,19.3
2022-09-07T23:14:50.303Z,19.3
2022-09-07T23:16:50.443Z,19.2
2022-09-07T23:18:50.421Z,19.2
2022-09-07T23:20:50.215Z,19.2
2022-09-07T23:22:50.461Z,19.2
2022-09-07T23:24:50.354Z,19.2
2022-09-07T23:26:50.666Z,19.2
2022-09-07T23:28:50.655Z,19.2
2022-09-07T23:30:50.602Z,19.2
2022-09-07T23:32:50.529Z,19.2
2022-09-07T23:34:50.186Z,19.2
2022-09-07T23:36:50.180Z,19.2
2022-09-07T23:38:50.109Z,19.2
2022-09-07T23:40:50.336Z,19.2
2022-09-07T23:42:50.191Z,19.1
2022-09-07T23:44:50.273Z,19.1
2022-09-07T23:46:50.704Z,19.1
2022-09-07T23:48:50.049Z,19.1
2022-09-07T23:50:49.927Z,19.0
2022-09-07T23:52:49.946Z,19.0
2022-09-07T23:54:50.788Z,19.0
2022-09-07T23:56:50.045Z,19.0
2022-09-07T23:58:49.983Z,19.0
